UAL155 PKWA-PKMJ
Flight info
| Callsign | UAL155 |
|---|---|
| Flight time | 0h 43m |
| Altitude | 31000 |
| Route | CURCH WOZTI |
| Aircraft | B738/M-SDE2E3FGHIRWXY/LB1 |
Departure
| Time | 2026-04-28 17:05 |
|---|---|
| Airport | Bucholz Army Air Field (PKWA) |
Arrival
| Time | 2026-04-28 17:48 |
|---|---|
| Airport | Marshall Islands International Airport (PKMJ) |
| Time | Latitude | Longitude | Altitude | Speed | Heading |
|---|---|---|---|---|---|
| 2026-04-28 16:30 | 8.72698 | 167.74090 | -37 ft | 0 kts | 118° |
| 2026-04-28 16:58 | 8.72697 | 167.74092 | -51 ft | 2 kts | 118° |
| 2026-04-28 16:58 | 8.72672 | 167.74122 | -37 ft | 10 kts | 140° |
| 2026-04-28 16:58 | 8.72584 | 167.74146 | -46 ft | 17 kts | 182° |
| 2026-04-28 16:59 | 8.72464 | 167.74106 | -37 ft | 18 kts | 209° |
| 2026-04-28 16:59 | 8.72429 | 167.74031 | -43 ft | 19 kts | 253° |
| 2026-04-28 16:59 | 8.72356 | 167.73908 | -37 ft | 15 kts | 253° |
| 2026-04-28 16:59 | 8.72334 | 167.73837 | -37 ft | 16 kts | 252° |
| 2026-04-28 17:00 | 8.72286 | 167.73684 | -37 ft | 18 kts | 253° |
| 2026-04-28 17:00 | 8.72248 | 167.73559 | -41 ft | 19 kts | 252° |
| 2026-04-28 17:00 | 8.72206 | 167.73425 | -52 ft | 20 kts | 252° |
| 2026-04-28 17:00 | 8.72165 | 167.73290 | -37 ft | 20 kts | 252° |
| 2026-04-28 17:01 | 8.72125 | 167.73159 | -37 ft | 19 kts | 252° |
| 2026-04-28 17:01 | 8.72099 | 167.73074 | -41 ft | 19 kts | 253° |
| 2026-04-28 17:01 | 8.72061 | 167.72951 | -37 ft | 18 kts | 252° |
| 2026-04-28 17:01 | 8.72022 | 167.72831 | -38 ft | 18 kts | 252° |
| 2026-04-28 17:02 | 8.71986 | 167.72708 | -38 ft | 19 kts | 252° |
| 2026-04-28 17:02 | 8.71946 | 167.72580 | -38 ft | 19 kts | 252° |
| 2026-04-28 17:02 | 8.71906 | 167.72450 | -37 ft | 19 kts | 253° |
| 2026-04-28 17:02 | 8.71871 | 167.72336 | -37 ft | 14 kts | 253° |
| 2026-04-28 17:03 | 8.71767 | 167.72372 | -38 ft | 13 kts | 75° |
| 2026-04-28 17:03 | 8.71779 | 167.72412 | -44 ft | 0 kts | 72° |
| 2026-04-28 17:04 | 8.71885 | 167.72755 | -39 ft | 86 kts | 72° |
| 2026-04-28 17:04 | 8.72127 | 167.73544 | -34 ft | 146 kts | 73° |
| 2026-04-28 17:05 | 8.72751 | 167.75796 | 1021 ft | 174 kts | 87° |
| 2026-04-28 17:05 | 8.72525 | 167.76992 | 1742 ft | 177 kts | 117° |
| 2026-04-28 17:05 | 8.71961 | 167.78136 | 2346 ft | 194 kts | 116° |
| 2026-04-28 17:06 | 8.70643 | 167.80846 | 2873 ft | 236 kts | 116° |
| 2026-04-28 17:06 | 8.69886 | 167.82397 | 3279 ft | 252 kts | 116° |
| 2026-04-28 17:06 | 8.68311 | 167.85621 | 4980 ft | 256 kts | 116° |
| 2026-04-28 17:07 | 8.67516 | 167.87247 | 5810 ft | 259 kts | 116° |
| 2026-04-28 17:07 | 8.66713 | 167.88891 | 6621 ft | 262 kts | 116° |
| 2026-04-28 17:07 | 8.65898 | 167.90559 | 7392 ft | 266 kts | 116° |
| 2026-04-28 17:07 | 8.65073 | 167.92247 | 8157 ft | 270 kts | 116° |
| 2026-04-28 17:08 | 8.64236 | 167.93959 | 8908 ft | 273 kts | 116° |
| 2026-04-28 17:08 | 8.63389 | 167.95691 | 9650 ft | 277 kts | 116° |
| 2026-04-28 17:08 | 8.62530 | 167.97448 | 10293 ft | 285 kts | 116° |
| 2026-04-28 17:08 | 8.61613 | 167.99323 | 10479 ft | 308 kts | 116° |
| 2026-04-28 17:09 | 8.60643 | 168.01305 | 10939 ft | 319 kts | 116° |
| 2026-04-28 17:09 | 8.59658 | 168.03321 | 11622 ft | 321 kts | 116° |
| 2026-04-28 17:09 | 8.58674 | 168.05331 | 12373 ft | 323 kts | 116° |
| 2026-04-28 17:09 | 8.57675 | 168.07372 | 13072 ft | 326 kts | 116° |
| 2026-04-28 17:10 | 8.56659 | 168.09448 | 13703 ft | 331 kts | 116° |
| 2026-04-28 17:10 | 8.55629 | 168.11553 | 14379 ft | 335 kts | 116° |
| 2026-04-28 17:10 | 8.54589 | 168.13677 | 15061 ft | 339 kts | 115° |
| 2026-04-28 17:10 | 8.53539 | 168.15822 | 15717 ft | 343 kts | 115° |
| 2026-04-28 17:11 | 8.52477 | 168.17992 | 16351 ft | 347 kts | 115° |
| 2026-04-28 17:11 | 8.51403 | 168.20185 | 16995 ft | 350 kts | 115° |
| 2026-04-28 17:11 | 8.50318 | 168.22402 | 17597 ft | 354 kts | 115° |
| 2026-04-28 17:11 | 8.49220 | 168.24641 | 18201 ft | 357 kts | 114° |
| 2026-04-28 17:12 | 8.48112 | 168.26903 | 18762 ft | 361 kts | 114° |
| 2026-04-28 17:12 | 8.46987 | 168.29198 | 19292 ft | 366 kts | 114° |
| 2026-04-28 17:12 | 8.45854 | 168.31510 | 19833 ft | 369 kts | 115° |
| 2026-04-28 17:12 | 8.44721 | 168.33820 | 20342 ft | 373 kts | 115° |
| 2026-04-28 17:13 | 8.43563 | 168.36180 | 20843 ft | 377 kts | 115° |
| 2026-04-28 17:13 | 8.42393 | 168.38566 | 21303 ft | 381 kts | 115° |
| 2026-04-28 17:13 | 8.41210 | 168.40979 | 21752 ft | 385 kts | 115° |
| 2026-04-28 17:13 | 8.40014 | 168.43416 | 22242 ft | 388 kts | 115° |
| 2026-04-28 17:14 | 8.38809 | 168.45870 | 22685 ft | 391 kts | 115° |
| 2026-04-28 17:14 | 8.37595 | 168.48343 | 23105 ft | 395 kts | 115° |
| 2026-04-28 17:14 | 8.36373 | 168.50832 | 23521 ft | 398 kts | 115° |
| 2026-04-28 17:14 | 8.35139 | 168.53344 | 23925 ft | 401 kts | 115° |
| 2026-04-28 17:15 | 8.33895 | 168.55878 | 24293 ft | 404 kts | 115° |
| 2026-04-28 17:15 | 8.32643 | 168.58428 | 24678 ft | 407 kts | 115° |
| 2026-04-28 17:15 | 8.31396 | 168.60966 | 25046 ft | 410 kts | 115° |
| 2026-04-28 17:15 | 8.30123 | 168.63558 | 25391 ft | 413 kts | 115° |
| 2026-04-28 17:16 | 8.28847 | 168.66169 | 25742 ft | 416 kts | 115° |
| 2026-04-28 17:16 | 8.27601 | 168.68816 | 26085 ft | 419 kts | 114° |
| 2026-04-28 17:16 | 8.26367 | 168.71495 | 26443 ft | 421 kts | 114° |
| 2026-04-28 17:16 | 8.25132 | 168.74197 | 26774 ft | 424 kts | 114° |
| 2026-04-28 17:17 | 8.23890 | 168.76913 | 27098 ft | 426 kts | 114° |
| 2026-04-28 17:17 | 8.22646 | 168.79627 | 27529 ft | 426 kts | 114° |
| 2026-04-28 17:17 | 8.21398 | 168.82342 | 28012 ft | 424 kts | 114° |
| 2026-04-28 17:17 | 8.20173 | 168.85001 | 28492 ft | 423 kts | 114° |
| 2026-04-28 17:18 | 8.18932 | 168.87691 | 28920 ft | 423 kts | 114° |
| 2026-04-28 17:18 | 8.17689 | 168.90383 | 29346 ft | 423 kts | 114° |
| 2026-04-28 17:18 | 8.16446 | 168.93075 | 29777 ft | 422 kts | 114° |
| 2026-04-28 17:18 | 8.15206 | 168.95757 | 30213 ft | 422 kts | 114° |
| 2026-04-28 17:19 | 8.13967 | 168.98438 | 30649 ft | 421 kts | 114° |
| 2026-04-28 17:19 | 8.12729 | 169.01116 | 30878 ft | 423 kts | 115° |
| 2026-04-28 17:19 | 8.10255 | 169.06466 | 30881 ft | 419 kts | 115° |
| 2026-04-28 17:20 | 8.08201 | 169.10905 | 30901 ft | 420 kts | 115° |
| 2026-04-28 17:20 | 8.05308 | 169.17157 | 30892 ft | 421 kts | 114° |
| 2026-04-28 17:21 | 8.02847 | 169.22474 | 30892 ft | 421 kts | 114° |
| 2026-04-28 17:22 | 7.99130 | 169.30499 | 30890 ft | 419 kts | 114° |
| 2026-04-28 17:22 | 7.96664 | 169.35821 | 30887 ft | 418 kts | 114° |
| 2026-04-28 17:23 | 7.92982 | 169.43763 | 30895 ft | 415 kts | 114° |
| 2026-04-28 17:23 | 7.90551 | 169.49002 | 30882 ft | 414 kts | 114° |
| 2026-04-28 17:24 | 7.89329 | 169.51635 | 30652 ft | 417 kts | 114° |
| 2026-04-28 17:24 | 7.88101 | 169.54282 | 30205 ft | 415 kts | 114° |
| 2026-04-28 17:24 | 7.86878 | 169.56915 | 29678 ft | 414 kts | 114° |
| 2026-04-28 17:24 | 7.85657 | 169.59545 | 29099 ft | 415 kts | 114° |
| 2026-04-28 17:25 | 7.84433 | 169.62181 | 28584 ft | 413 kts | 114° |
| 2026-04-28 17:25 | 7.82013 | 169.67389 | 27681 ft | 407 kts | 114° |
| 2026-04-28 17:25 | 7.80817 | 169.69963 | 27230 ft | 404 kts | 114° |
| 2026-04-28 17:26 | 7.79627 | 169.72523 | 26783 ft | 401 kts | 113° |
| 2026-04-28 17:26 | 7.78447 | 169.75062 | 26336 ft | 399 kts | 113° |
| 2026-04-28 17:26 | 7.77275 | 169.77583 | 25888 ft | 396 kts | 113° |
| 2026-04-28 17:26 | 7.76110 | 169.80089 | 25451 ft | 393 kts | 113° |
| 2026-04-28 17:27 | 7.74953 | 169.82575 | 25015 ft | 390 kts | 113° |
| 2026-04-28 17:27 | 7.73805 | 169.85046 | 24578 ft | 388 kts | 113° |
| 2026-04-28 17:27 | 7.72662 | 169.87502 | 24138 ft | 386 kts | 113° |
| 2026-04-28 17:27 | 7.71527 | 169.89941 | 23708 ft | 383 kts | 113° |
| 2026-04-28 17:28 | 7.70399 | 169.92365 | 23280 ft | 381 kts | 113° |
| 2026-04-28 17:28 | 7.68163 | 169.97168 | 22430 ft | 376 kts | 113° |
| 2026-04-28 17:28 | 7.67058 | 169.99542 | 22007 ft | 373 kts | 113° |
| 2026-04-28 17:29 | 7.65957 | 170.01904 | 21582 ft | 371 kts | 113° |
| 2026-04-28 17:29 | 7.64865 | 170.04250 | 21160 ft | 369 kts | 113° |
| 2026-04-28 17:29 | 7.63778 | 170.06584 | 20749 ft | 366 kts | 113° |
| 2026-04-28 17:30 | 7.61626 | 170.11201 | 19925 ft | 361 kts | 113° |
| 2026-04-28 17:30 | 7.59514 | 170.15731 | 19116 ft | 357 kts | 113° |
| 2026-04-28 17:30 | 7.58463 | 170.17986 | 18714 ft | 354 kts | 112° |
| 2026-04-28 17:31 | 7.57418 | 170.20225 | 18314 ft | 352 kts | 113° |
| 2026-04-28 17:31 | 7.55350 | 170.24661 | 17522 ft | 347 kts | 113° |
| 2026-04-28 17:32 | 7.53307 | 170.29039 | 16742 ft | 342 kts | 113° |
| 2026-04-28 17:32 | 7.52295 | 170.31208 | 16348 ft | 340 kts | 113° |
| 2026-04-28 17:32 | 7.51294 | 170.33353 | 15964 ft | 338 kts | 114° |
| 2026-04-28 17:32 | 7.50297 | 170.35489 | 15577 ft | 335 kts | 114° |
| 2026-04-28 17:33 | 7.49308 | 170.37608 | 15188 ft | 333 kts | 114° |
| 2026-04-28 17:33 | 7.48327 | 170.39708 | 14815 ft | 330 kts | 114° |
| 2026-04-28 17:33 | 7.47353 | 170.41795 | 14440 ft | 328 kts | 114° |
| 2026-04-28 17:33 | 7.46711 | 170.43169 | 14193 ft | 326 kts | 114° |
| 2026-04-28 17:34 | 7.45424 | 170.45925 | 13693 ft | 323 kts | 115° |
| 2026-04-28 17:34 | 7.44471 | 170.47964 | 13325 ft | 321 kts | 115° |
| 2026-04-28 17:34 | 7.43523 | 170.49993 | 12957 ft | 319 kts | 115° |
| 2026-04-28 17:34 | 7.42595 | 170.51980 | 12591 ft | 316 kts | 115° |
| 2026-04-28 17:35 | 7.41661 | 170.53978 | 12227 ft | 314 kts | 115° |
| 2026-04-28 17:35 | 7.40733 | 170.55963 | 11866 ft | 312 kts | 116° |
| 2026-04-28 17:35 | 7.39800 | 170.57960 | 11501 ft | 310 kts | 116° |
| 2026-04-28 17:35 | 7.38898 | 170.59890 | 11147 ft | 308 kts | 116° |
| 2026-04-28 17:36 | 7.37986 | 170.61839 | 10783 ft | 306 kts | 116° |
| 2026-04-28 17:36 | 7.37082 | 170.63773 | 10428 ft | 304 kts | 116° |
| 2026-04-28 17:36 | 7.36186 | 170.65688 | 10185 ft | 298 kts | 116° |
| 2026-04-28 17:36 | 7.35311 | 170.67559 | 10071 ft | 293 kts | 116° |
| 2026-04-28 17:37 | 7.34453 | 170.69394 | 9930 ft | 286 kts | 116° |
| 2026-04-28 17:37 | 7.33615 | 170.71185 | 9700 ft | 281 kts | 116° |
| 2026-04-28 17:37 | 7.32782 | 170.72964 | 9404 ft | 280 kts | 116° |
| 2026-04-28 17:37 | 7.31956 | 170.74730 | 9112 ft | 278 kts | 116° |
| 2026-04-28 17:38 | 7.31135 | 170.76485 | 8815 ft | 277 kts | 115° |
| 2026-04-28 17:38 | 7.30315 | 170.78235 | 8516 ft | 275 kts | 115° |
| 2026-04-28 17:38 | 7.29501 | 170.79973 | 8224 ft | 274 kts | 115° |
| 2026-04-28 17:38 | 7.28691 | 170.81702 | 7927 ft | 273 kts | 115° |
| 2026-04-28 17:39 | 7.27700 | 170.83316 | 7618 ft | 272 kts | 131° |
| 2026-04-28 17:39 | 7.26393 | 170.84679 | 7350 ft | 270 kts | 134° |
| 2026-04-28 17:39 | 7.23772 | 170.87328 | 6770 ft | 267 kts | 133° |
| 2026-04-28 17:40 | 7.22468 | 170.88657 | 6481 ft | 266 kts | 133° |
| 2026-04-28 17:40 | 7.21171 | 170.89985 | 6192 ft | 265 kts | 133° |
| 2026-04-28 17:40 | 7.19884 | 170.91309 | 5904 ft | 264 kts | 133° |
| 2026-04-28 17:40 | 7.18602 | 170.92631 | 5620 ft | 263 kts | 133° |
| 2026-04-28 17:41 | 7.17331 | 170.93944 | 5336 ft | 262 kts | 133° |
| 2026-04-28 17:41 | 7.16062 | 170.95257 | 5048 ft | 261 kts | 133° |
| 2026-04-28 17:41 | 7.14798 | 170.96565 | 4776 ft | 260 kts | 133° |
| 2026-04-28 17:41 | 7.13541 | 170.97866 | 4489 ft | 259 kts | 132° |
| 2026-04-28 17:42 | 7.12288 | 170.99163 | 4214 ft | 258 kts | 132° |
| 2026-04-28 17:42 | 7.11460 | 171.00021 | 4053 ft | 257 kts | 133° |
| 2026-04-28 17:42 | 7.09806 | 171.01733 | 3920 ft | 253 kts | 132° |
| 2026-04-28 17:42 | 7.08594 | 171.02985 | 3798 ft | 246 kts | 132° |
| 2026-04-28 17:43 | 7.07427 | 171.04211 | 3687 ft | 239 kts | 131° |
| 2026-04-28 17:43 | 7.06316 | 171.05420 | 3583 ft | 231 kts | 130° |
| 2026-04-28 17:43 | 7.05245 | 171.06589 | 3505 ft | 222 kts | 130° |
| 2026-04-28 17:43 | 7.04228 | 171.07696 | 3414 ft | 209 kts | 130° |
| 2026-04-28 17:44 | 7.03258 | 171.08752 | 3207 ft | 202 kts | 130° |
| 2026-04-28 17:44 | 7.02547 | 171.09914 | 2987 ft | 192 kts | 97° |
| 2026-04-28 17:44 | 7.02714 | 171.11205 | 2867 ft | 188 kts | 75° |
| 2026-04-28 17:44 | 7.02943 | 171.12518 | 2643 ft | 192 kts | 81° |
| 2026-04-28 17:45 | 7.03212 | 171.13828 | 2478 ft | 188 kts | 75° |
| 2026-04-28 17:45 | 7.03527 | 171.15099 | 2223 ft | 186 kts | 75° |
| 2026-04-28 17:45 | 7.03827 | 171.16305 | 1966 ft | 174 kts | 75° |
| 2026-04-28 17:45 | 7.04111 | 171.17457 | 1755 ft | 165 kts | 75° |
| 2026-04-28 17:46 | 7.04373 | 171.18526 | 1549 ft | 151 kts | 75° |
| 2026-04-28 17:46 | 7.04619 | 171.19527 | 1378 ft | 145 kts | 75° |
| 2026-04-28 17:46 | 7.04866 | 171.20533 | 1139 ft | 148 kts | 75° |
| 2026-04-28 17:46 | 7.05110 | 171.21529 | 943 ft | 146 kts | 75° |
| 2026-04-28 17:47 | 7.05353 | 171.22520 | 761 ft | 146 kts | 75° |
| 2026-04-28 17:47 | 7.05598 | 171.23516 | 564 ft | 146 kts | 75° |
| 2026-04-28 17:47 | 7.05758 | 171.24173 | 417 ft | 144 kts | 76° |
| 2026-04-28 17:47 | 7.05914 | 171.24819 | 317 ft | 137 kts | 77° |
| 2026-04-28 17:48 | 7.06219 | 171.26041 | 86 ft | 135 kts | 77° |
| 2026-04-28 17:48 | 7.06424 | 171.26899 | 0 ft | 108 kts | 76° |
| 2026-04-28 17:48 | 7.06552 | 171.27422 | 1 ft | 48 kts | 76° |
| 2026-04-28 17:48 | 7.06606 | 171.27642 | -1 ft | 28 kts | 76° |
| 2026-04-28 17:49 | 7.06645 | 171.27805 | 1 ft | 23 kts | 76° |
| 2026-04-28 17:49 | 7.06683 | 171.27958 | 1 ft | 22 kts | 76° |
| 2026-04-28 17:49 | 7.06712 | 171.28078 | 1 ft | 12 kts | 77° |
| 2026-04-28 17:49 | 7.06731 | 171.28159 | 3 ft | 12 kts | 76° |
| 2026-04-28 17:50 | 7.06771 | 171.28219 | 4 ft | 11 kts | 358° |
| 2026-04-28 17:50 | 7.06816 | 171.28208 | 4 ft | 3 kts | 329° |
| 2026-04-28 17:50 | 7.06821 | 171.28185 | 4 ft | 4 kts | 275° |
| 2026-04-28 17:50 | 7.06839 | 171.28175 | 4 ft | 3 kts | 23° |
| 2026-04-28 17:51 | 7.06843 | 171.28188 | 4 ft | 2 kts | 92° |
| 2026-04-28 17:51 | 7.06836 | 171.28198 | 4 ft | 0 kts | 125° |